Time;durP1;ratioP1;P1;durP2;ratioP2;P2;SDS_P1;SDS_P2;PMS_P1;PMS_P2;Temp;Humidity;BMP_temperature;BMP_pressure;BME280_temperature;BME280_humidity;BME280_pressure;Samples;Min_cycle;Max_cycle;Signal;HPM_P1;HPM_P2
2022/03/13 00:00:46;;;;;;;87.60;34.55;;;;;;;-3.51;62.32;96298.84;5033918;28;20040;-82
2022/03/13 00:03:13;;;;;;;84.25;33.80;;;;;;;-4.35;63.01;96177.13;5033351;28;20049;-81
2022/03/13 00:05:41;;;;;;;91.43;33.78;;;;;;;-4.26;62.17;96183.94;5032404;28;20064;-81
2022/03/13 00:08:24;;;;;;;77.63;32.35;;;;;;;-3.59;63.11;96293.63;5032431;28;20033;-81
2022/03/13 00:10:56;;;;;;;79.22;32.10;;;;;;;-3.63;61.30;96295.72;5032128;28;20060;-81
2022/03/13 00:13:24;;;;;;;84.70;32.55;;;;;;;-3.71;62.38;96297.47;5034593;28;20033;-81
2022/03/13 00:15:51;;;;;;;83.07;34.20;;;;;;;-4.66;61.61;96138.03;5032901;28;20041;-81
2022/03/13 00:18:17;;;;;;;88.28;34.20;;;;;;;-4.06;61.77;96268.22;5033848;28;20026;-82
2022/03/13 00:20:43;;;;;;;95.90;35.42;;;;;;;-4.12;62.46;96263.63;5033571;28;20041;-82
2022/03/13 00:23:09;;;;;;;94.57;35.50;;;;;;;-4.10;62.55;96269.50;5035515;28;20162;-81
2022/03/13 00:25:34;;;;;;;91.35;35.08;;;;;;;-4.26;61.92;96272.00;5036425;28;20127;-81
2022/03/13 00:28:12;;;;;;;84.15;30.80;;;;;;;-4.40;60.79;96238.94;4279463;28;10001244;-81
2022/03/13 00:30:39;;;;;;;66.25;25.42;;;;;;;-4.90;60.37;96143.91;1388100;28;10001887;-82
2022/03/13 00:33:06;;;;;;;67.88;25.27;;;;;;;-4.98;59.78;96151.63;5035523;28;20386;-82
2022/03/13 00:35:31;;;;;;;53.75;19.65;;;;;;;-4.70;59.94;96191.06;5036160;28;20045;-82
2022/03/13 00:37:57;;;;;;;51.17;19.35;;;;;;;-4.35;59.34;96209.00;5035794;28;20030;-81
2022/03/13 00:40:23;;;;;;;64.57;23.63;;;;;;;-4.63;60.52;96181.72;5037497;28;20203;-82
2022/03/13 00:42:49;;;;;;;48.63;21.38;;;;;;;-4.52;60.74;96184.03;5036004;28;20041;-82
2022/03/13 00:45:14;;;;;;;44.83;18.25;;;;;;;-4.05;60.81;96256.91;5037855;28;20029;-81
2022/03/13 00:47:40;;;;;;;47.42;18.15;;;;;;;-3.69;59.70;96288.59;5037210;28;20041;-82
2022/03/13 00:50:06;;;;;;;48.03;20.15;;;;;;;-4.24;59.98;96209.69;5037474;28;20069;-82
2022/03/13 00:52:32;;;;;;;45.45;17.90;;;;;;;-4.57;58.42;96170.72;5036287;28;20047;-82
2022/03/13 00:54:57;;;;;;;43.35;17.33;;;;;;;-4.45;58.93;96186.81;5035765;28;20060;-81
2022/03/13 00:57:23;;;;;;;41.35;16.80;;;;;;;-4.22;59.52;96215.53;5035814;28;20038;-81
2022/03/13 00:59:48;;;;;;;45.97;17.35;;;;;;;-3.67;58.87;96267.69;5037639;28;20040;-81
2022/03/13 01:02:14;;;;;;;43.65;18.25;;;;;;;-3.75;58.73;96265.06;5036913;28;20057;-81
2022/03/13 01:04:40;;;;;;;41.75;18.05;;;;;;;-4.45;58.05;96179.84;5035287;28;20060;-81
2022/03/13 01:07:05;;;;;;;53.42;19.60;;;;;;;-4.33;59.62;96201.91;5036863;28;20116;-81
2022/03/13 01:09:31;;;;;;;42.67;17.80;;;;;;;-4.78;58.25;96134.91;5037457;28;20045;-81
2022/03/13 01:11:57;;;;;;;49.97;19.10;;;;;;;-4.85;59.13;96133.91;5052451;28;20492;-81
2022/03/13 01:14:23;;;;;;;46.88;18.30;;;;;;;-4.40;59.71;96220.81;5035206;28;20041;-83
2022/03/13 01:17:00;;;;;;;49.90;18.90;;;;;;;-4.49;60.35;96221.72;5035834;28;20033;-81
2022/03/13 01:19:25;;;;;;;54.60;20.63;;;;;;;-4.65;60.24;96181.03;5036382;28;20029;-81
2022/03/13 01:21:51;;;;;;;54.33;20.92;;;;;;;-5.11;61.44;96089.16;5036390;28;20064;-82
2022/03/13 01:24:19;;;;;;;58.65;22.58;;;;;;;-4.84;60.64;96127.75;5036049;28;20124;-81
2022/03/13 01:27:05;;;;;;;51.08;20.60;;;;;;;-4.72;60.98;96149.81;5051733;28;20500;-81
2022/03/13 01:29:32;;;;;;;52.25;21.65;;;;;;;-4.20;61.55;96235.16;5036313;28;20037;-82
2022/03/13 01:31:59;;;;;;;61.15;24.45;;;;;;;-4.22;61.22;96221.53;4998691;23;20081;-86
2022/03/13 01:34:38;;;;;;;54.22;22.08;;;;;;;-4.07;61.97;96248.47;4970912;28;20031;-85
2022/03/13 01:37:06;;;;;;;59.67;24.30;;;;;;;-4.08;62.45;96235.66;4970400;28;20043;-87
2022/03/13 01:39:32;;;;;;;56.72;22.02;;;;;;;-4.65;61.23;96169.91;4971044;28;20538;-86
2022/03/13 01:41:57;;;;;;;56.63;22.50;;;;;;;-5.15;61.23;96122.28;4970374;28;20066;-86
2022/03/13 01:44:23;;;;;;;51.13;21.75;;;;;;;-4.88;61.74;96138.59;4973029;28;20515;-86
2022/03/13 01:46:49;;;;;;;57.28;22.95;;;;;;;-4.33;62.22;96232.97;4990650;28;20034;-86
2022/03/13 01:49:16;;;;;;;58.17;23.95;;;;;;;-5.08;62.07;96161.25;4973752;28;20038;-86
2022/03/13 01:51:41;;;;;;;76.20;27.90;;;;;;;-6.14;62.44;95971.19;4973011;28;20117;-86
2022/03/13 01:54:09;;;;;;;86.60;30.65;;;;;;;-4.54;61.99;96236.94;4973249;28;20129;-86
2022/03/13 01:56:35;;;;;;;95.82;34.05;;;;;;;-5.28;61.86;96103.78;4973543;28;20042;-86
2022/03/13 01:59:03;;;;;;;85.85;35.60;;;;;;;-4.94;61.97;96185.75;4991247;28;20488;-86
2022/03/13 02:01:29;;;;;;;84.70;36.22;;;;;;;-5.39;61.81;96098.84;4989856;28;20027;-86
2022/03/13 02:03:55;;;;;;;92.75;35.75;;;;;;;-5.20;61.39;96178.81;4973015;28;20538;-86
2022/03/13 02:06:26;;;;;;;78.60;32.63;;;;;;;-6.24;62.10;95960.13;4972827;28;20078;-87
2022/03/13 02:08:53;;;;;;;95.32;33.28;;;;;;;-4.41;62.20;96242.47;4990833;28;20034;-86
2022/03/13 02:11:22;;;;;;;80.97;32.35;;;;;;;-4.59;61.47;96224.44;4990987;28;20027;-86
2022/03/13 02:13:49;;;;;;;88.68;33.85;;;;;;;-4.39;60.71;96238.78;4973214;28;20120;-87
2022/03/13 02:16:16;;;;;;;84.53;31.38;;;;;;;-4.83;61.78;96168.19;4990987;28;20033;-86
2022/03/13 02:18:42;;;;;;;89.57;32.40;;;;;;;-4.83;61.27;96160.44;4991132;28;20560;-86
2022/03/13 02:21:10;;;;;;;81.07;31.70;;;;;;;-6.68;60.72;95890.47;4972929;28;20030;-86
2022/03/13 02:23:37;;;;;;;91.10;34.05;;;;;;;-7.28;59.93;95811.34;4973207;28;20088;-86
2022/03/13 02:26:04;;;;;;;76.45;30.10;;;;;;;-5.40;60.02;96106.75;4973149;28;20488;-86
2022/03/13 02:28:32;;;;;;;77.97;30.73;;;;;;;-7.98;60.23;95704.81;4988825;28;20030;-85
2022/03/13 02:31:03;;;;;;;76.85;28.88;;;;;;;-7.20;61.26;95845.75;4972834;28;20038;-87
2022/03/13 02:33:29;;;;;;;79.90;30.85;;;;;;;-6.71;60.56;95889.94;4988971;28;20037;-86
2022/03/13 02:36:01;;;;;;;85.85;28.77;;;;;;;-6.21;61.35;95961.59;4990114;28;20038;-86
2022/03/13 02:38:28;;;;;;;79.70;30.15;;;;;;;-4.65;61.26;96238.00;4988677;28;20198;-86
2022/03/13 02:40:55;;;;;;;84.65;29.48;;;;;;;-5.46;61.47;96085.72;4972459;28;20046;-86
2022/03/13 02:43:22;;;;;;;78.70;28.42;;;;;;;-4.52;61.81;96248.75;4988783;28;20073;-86
2022/03/13 02:45:49;;;;;;;78.22;31.38;;;;;;;-4.80;61.70;96209.28;4988120;28;20101;-86
2022/03/13 02:48:17;;;;;;;85.88;29.48;;;;;;;-6.82;62.33;95874.72;4971974;28;20042;-87
2022/03/13 02:50:42;;;;;;;93.40;31.45;;;;;;;-5.49;61.56;96117.03;4988794;28;20233;-86
2022/03/13 02:53:09;;;;;;;75.43;30.00;;;;;;;-7.12;61.53;95871.59;4972077;28;20137;-86
2022/03/13 02:55:35;;;;;;;73.57;28.60;;;;;;;-4.61;61.71;96248.88;4988275;28;20476;-87
2022/03/13 02:58:00;;;;;;;75.82;29.60;;;;;;;-4.98;62.61;96229.25;4971853;28;20041;-87
2022/03/13 03:00:46;;;;;;;77.00;29.35;;;;;;;-4.72;63.01;96240.38;4972573;28;20030;-86
2022/03/13 03:03:16;;;;;;;77.40;30.20;;;;;;;-4.71;62.98;96249.78;4972306;28;20539;-86
2022/03/13 03:05:42;;;;;;;89.20;31.20;;;;;;;-6.41;63.17;96007.44;4988364;28;20069;-86
2022/03/13 03:08:08;;;;;;;79.05;30.50;;;;;;;-4.81;64.24;96241.31;4971889;28;20030;-86
2022/03/13 03:10:35;;;;;;;69.68;29.40;;;;;;;-4.75;63.48;96251.06;4972031;28;20073;-86
2022/03/13 03:13:01;;;;;;;73.28;28.48;;;;;;;-5.43;62.57;96125.19;4987813;28;20401;-87
2022/03/13 03:15:27;;;;;;;66.82;27.17;;;;;;;-5.51;62.66;96123.34;4972325;28;20076;-86
2022/03/13 03:17:53;;;;;;;66.25;26.95;;;;;;;-6.19;63.09;96042.31;4972097;28;20026;-86
2022/03/13 03:20:20;;;;;;;68.32;22.27;;;;;;;-4.83;62.94;96230.31;4971614;28;20177;-86
2022/03/13 03:22:46;;;;;;;55.70;22.05;;;;;;;-8.39;61.80;95680.50;4971703;28;20041;-86
2022/03/13 03:25:12;;;;;;;67.03;26.95;;;;;;;-7.56;62.39;95801.13;4989483;28;20512;-86
2022/03/13 03:27:40;;;;;;;63.83;25.83;;;;;;;-8.00;63.03;95761.56;4971775;28;20052;-86
2022/03/13 03:30:06;;;;;;;68.18;25.30;;;;;;;-5.35;62.66;96158.84;4988934;28;20461;-86
2022/03/13 03:32:31;;;;;;;60.33;21.90;;;;;;;-5.24;62.59;96176.69;4971416;28;20459;-86
2022/03/13 03:34:57;;;;;;;51.00;21.13;;;;;;;-5.29;62.33;96186.66;4971277;28;20027;-86
2022/03/13 03:37:22;;;;;;;63.95;23.98;;;;;;;-5.74;61.76;96138.53;4988024;28;20188;-87
2022/03/13 03:39:48;;;;;;;68.90;26.60;;;;;;;-5.00;62.48;96225.97;4972106;28;20042;-86
2022/03/13 03:42:13;;;;;;;65.25;25.25;;;;;;;-5.92;62.44;96065.44;4971440;28;20046;-86
2022/03/13 03:44:39;;;;;;;52.58;24.60;;;;;;;-5.91;62.51;96067.06;4971356;28;20034;-86
2022/03/13 03:47:04;;;;;;;66.57;25.27;;;;;;;-6.21;62.88;96042.44;4989082;28;20506;-87
2022/03/13 03:49:30;;;;;;;69.40;24.52;;;;;;;-7.17;62.58;95866.03;4987668;28;20034;-87
2022/03/13 03:51:55;;;;;;;67.90;24.83;;;;;;;-4.90;62.89;96220.72;4987415;28;20120;-86
2022/03/13 03:54:21;;;;;;;65.05;24.77;;;;;;;-6.19;62.67;96009.56;4987466;28;20636;-86
2022/03/13 03:56:50;;;;;;;71.38;25.63;;;;;;;-5.48;62.47;96133.38;4987168;28;20077;-87
2022/03/13 03:59:15;;;;;;;50.88;23.38;;;;;;;-5.19;62.12;96192.56;4971028;28;20030;-86
2022/03/13 04:01:43;;;;;;;57.63;23.50;;;;;;;-5.04;61.61;96188.47;4970601;28;20042;-87
2022/03/13 04:04:09;;;;;;;66.47;24.42;;;;;;;-7.44;60.97;95836.03;4987123;28;20416;-86
2022/03/13 04:06:39;;;;;;;60.65;24.50;;;;;;;-5.81;60.96;96061.78;4988645;28;20034;-86
2022/03/13 04:09:05;;;;;;;55.10;23.17;;;;;;;-8.54;61.38;95653.66;4988918;28;20476;-86
2022/03/13 04:11:31;;;;;;;58.88;22.70;;;;;;;-8.08;60.95;95691.19;4989138;28;20389;-87
2022/03/13 04:13:57;;;;;;;49.33;21.30;;;;;;;-7.90;61.23;95761.53;4987710;28;20041;-86
2022/03/13 04:16:22;;;;;;;43.63;17.90;;;;;;;-8.33;61.24;95721.88;4971908;28;20053;-86
2022/03/13 04:18:48;;;;;;;36.97;16.27;;;;;;;-5.76;61.15;96186.13;4987337;28;20039;-86
2022/03/13 04:21:13;;;;;;;35.47;15.70;;;;;;;-5.40;61.21;96212.75;4989408;28;20459;-86
2022/03/13 04:23:39;;;;;;;36.15;13.80;;;;;;;-6.23;60.88;96085.66;5001832;28;20052;-86
2022/03/13 04:26:05;;;;;;;35.10;14.73;;;;;;;-6.29;61.49;96056.09;4976665;28;20523;-87
2022/03/13 04:28:33;;;;;;;37.08;14.15;;;;;;;-6.80;60.93;95988.88;4979686;28;20046;-86
2022/03/13 04:31:00;;;;;;;39.42;13.32;;;;;;;-5.72;61.35;96156.47;4965190;28;20145;-86
2022/03/13 04:33:33;;;;;;;35.28;15.50;;;;;;;-5.42;61.70;96184.50;4969869;28;20049;-86
2022/03/13 04:36:00;;;;;;;28.67;13.95;;;;;;;-5.51;61.36;96164.72;4970019;28;20046;-86
2022/03/13 04:38:27;;;;;;;34.92;13.85;;;;;;;-6.86;61.15;95928.34;4971428;28;20056;-86
2022/03/13 04:40:54;;;;;;;31.42;13.50;;;;;;;-6.72;61.01;95965.75;4988274;28;20105;-86
2022/03/13 04:43:21;;;;;;;43.83;14.52;;;;;;;-5.87;61.01;96123.38;4972143;28;20035;-86
2022/03/13 04:45:47;;;;;;;30.70;13.57;;;;;;;-5.24;60.58;96213.69;4988654;28;20043;-86
2022/03/13 04:48:13;;;;;;;31.10;12.57;;;;;;;-6.41;60.49;96039.22;4988221;28;20042;-86
2022/03/13 04:50:38;;;;;;;40.90;15.55;;;;;;;-7.14;61.27;95927.63;4990949;28;20126;-86
2022/03/13 04:53:04;;;;;;;35.05;15.50;;;;;;;-5.26;61.31;96220.78;4989632;28;20038;-86
2022/03/13 04:55:29;;;;;;;46.50;14.85;;;;;;;-8.52;60.47;95685.97;4989449;28;20034;-86
2022/03/13 04:57:55;;;;;;;37.30;15.38;;;;;;;-5.53;61.46;96177.78;4973088;28;20050;-86
2022/03/13 05:00:22;;;;;;;33.40;15.98;;;;;;;-5.70;61.27;96139.03;4974154;28;20508;-86
2022/03/13 05:02:48;;;;;;;36.55;16.58;;;;;;;-5.98;61.54;96131.41;4971687;28;20042;-86
2022/03/13 05:05:13;;;;;;;32.63;14.60;;;;;;;-5.52;61.97;96202.66;4988705;28;20137;-86
2022/03/13 05:07:39;;;;;;;36.05;15.88;;;;;;;-8.71;61.43;95637.22;4970917;28;20027;-86
2022/03/13 05:10:06;;;;;;;38.15;15.60;;;;;;;-5.05;61.13;96251.50;4973658;28;20574;-86
2022/03/13 05:12:32;;;;;;;46.05;16.65;;;;;;;-5.36;61.51;96158.03;4974715;28;20048;-85
2022/03/13 05:14:58;;;;;;;41.88;16.08;;;;;;;-5.76;61.33;96096.53;4974458;28;20042;-86
2022/03/13 05:17:23;;;;;;;39.47;16.40;;;;;;;-8.29;60.81;95699.19;4991670;28;20041;-87
2022/03/13 05:19:49;;;;;;;37.03;17.27;;;;;;;-7.72;61.71;95782.94;4974065;28;20500;-86
2022/03/13 05:22:15;;;;;;;41.72;16.92;;;;;;;-5.61;61.31;96097.59;4974226;28;20026;-85
2022/03/13 05:24:40;;;;;;;41.28;16.83;;;;;;;-5.56;60.94;96104.88;4973786;28;20343;-87
2022/03/13 05:27:06;;;;;;;40.55;16.25;;;;;;;-7.10;60.40;95861.94;4973758;28;20034;-86
2022/03/13 05:29:32;;;;;;;56.83;17.10;;;;;;;-6.88;60.93;95890.81;4973301;28;20085;-86
2022/03/13 05:31:57;;;;;;;34.15;16.17;;;;;;;-5.78;60.23;96051.94;4973562;28;20050;-86
2022/03/13 05:34:23;;;;;;;37.88;15.65;;;;;;;-6.67;60.64;95899.84;4973538;28;20042;-86
2022/03/13 05:36:48;;;;;;;39.97;15.63;;;;;;;-4.85;60.41;96190.81;4973712;28;20420;-86
2022/03/13 05:39:14;;;;;;;39.72;16.58;;;;;;;-6.11;60.28;95976.06;4973423;28;20213;-86
2022/03/13 05:41:40;;;;;;;37.67;16.08;;;;;;;-4.99;60.64;96157.75;4974902;28;20544;-86
2022/03/13 05:44:10;;;;;;;34.90;16.55;;;;;;;-5.12;60.31;96118.59;4989431;28;20539;-86
2022/03/13 05:46:36;;;;;;;35.75;15.57;;;;;;;-4.86;60.42;96160.75;4989097;28;20041;-86
2022/03/13 05:49:03;;;;;;;37.03;16.45;;;;;;;-4.70;59.87;96162.59;4972926;28;20034;-86
2022/03/13 05:51:35;;;;;;;42.65;17.23;;;;;;;-6.48;59.90;95867.84;4972982;28;20054;-86
2022/03/13 05:54:02;;;;;;;37.03;16.95;;;;;;;-5.02;59.40;96095.97;4989442;28;20034;-86
2022/03/13 05:56:27;;;;;;;42.80;16.98;;;;;;;-4.99;59.67;96112.97;4989383;28;20042;-86
2022/03/13 05:58:53;;;;;;;47.30;16.45;;;;;;;-4.10;58.82;96217.66;4972533;28;20404;-86
2022/03/13 06:01:18;;;;;;;38.25;16.25;;;;;;;-4.48;58.59;96174.16;4989206;28;20500;-86
2022/03/13 06:03:44;;;;;;;39.58;17.25;;;;;;;-4.23;58.08;96217.31;4990287;28;20518;-86
2022/03/13 06:06:10;;;;;;;41.50;17.15;;;;;;;-4.76;58.13;96103.69;4990344;28;20621;-86
2022/03/13 06:08:37;;;;;;;38.83;17.60;;;;;;;-5.31;58.42;96011.00;4973830;28;20416;-86
2022/03/13 06:11:03;;;;;;;44.50;18.27;;;;;;;-5.02;58.24;96083.03;4990584;28;20045;-86
2022/03/13 06:13:29;;;;;;;41.13;18.05;;;;;;;-3.79;58.92;96250.78;4973249;28;20042;-87
2022/03/13 06:15:57;;;;;;;42.85;17.67;;;;;;;-5.00;58.26;96052.66;4989549;28;20049;-86
2022/03/13 06:18:30;;;;;;;46.50;18.52;;;;;;;-4.31;58.76;96187.03;4989393;28;20045;-86
2022/03/13 06:20:56;;;;;;;38.33;18.33;;;;;;;-4.09;58.81;96195.16;4971726;28;20042;-87
2022/03/13 06:23:22;;;;;;;42.03;19.15;;;;;;;-4.94;58.20;96054.63;4972581;28;20038;-86
2022/03/13 06:25:48;;;;;;;54.40;20.63;;;;;;;-5.44;58.90;95964.09;4972865;28;20030;-87
2022/03/13 06:28:14;;;;;;;50.95;20.48;;;;;;;-3.59;58.88;96250.38;4972527;28;20045;-86
2022/03/13 06:30:40;;;;;;;52.75;19.45;;;;;;;-3.75;58.34;96249.53;4993955;28;20089;-87
2022/03/13 06:33:05;;;;;;;51.78;21.20;;;;;;;-4.63;58.27;96085.13;4991796;28;20123;-86
2022/03/13 06:35:32;;;;;;;58.13;22.77;;;;;;;-4.26;58.70;96121.78;4991695;28;20037;-86
2022/03/13 06:37:57;;;;;;;54.25;24.80;;;;;;;-3.70;58.74;96196.22;4991420;28;20508;-86
2022/03/13 06:40:24;;;;;;;60.05;24.95;;;;;;;-3.25;58.62;96252.00;5009663;28;20099;-86
2022/03/13 06:42:53;;;;;;;59.00;25.20;;;;;;;-3.27;58.06;96256.53;4991311;28;20038;-86
2022/03/13 06:45:19;;;;;;;59.00;24.77;;;;;;;-3.34;58.08;96256.38;5009328;28;20503;-86
2022/03/13 06:47:46;;;;;;;55.55;25.17;;;;;;;-4.08;58.36;96189.84;4991511;28;20038;-86
2022/03/13 06:50:14;;;;;;;57.30;24.80;;;;;;;-4.50;58.27;96108.81;4991514;28;20508;-86
2022/03/13 06:52:40;;;;;;;59.88;25.70;;;;;;;-3.89;57.11;96193.94;4992424;28;20050;-86
2022/03/13 06:55:07;;;;;;;59.72;23.60;;;;;;;-4.39;57.73;96121.44;4991226;28;20041;-86
2022/03/13 06:57:32;;;;;;;57.33;25.83;;;;;;;-4.97;58.01;96051.56;4991698;28;20064;-86
2022/03/13 06:59:59;;;;;;;56.67;24.55;;;;;;;-3.96;58.29;96219.66;4991639;28;20538;-86
2022/03/13 07:02:25;;;;;;;55.97;24.42;;;;;;;-6.26;58.15;95856.22;4992619;28;20037;-86
2022/03/13 07:04:50;;;;;;;56.15;24.65;;;;;;;-5.98;57.75;95854.25;4992489;28;20271;-86
2022/03/13 07:07:15;;;;;;;58.95;24.10;;;;;;;-6.20;57.58;95814.31;4993725;28;20034;-85
2022/03/13 07:09:41;;;;;;;72.55;25.13;;;;;;;-4.83;57.42;96053.53;4991875;28;20033;-85
2022/03/13 07:12:11;;;;;;;52.30;23.00;;;;;;;-3.83;57.50;96211.44;4992149;28;20094;-86
2022/03/13 07:14:46;;;;;;;50.17;20.85;;;;;;;-4.25;57.47;96135.53;4991737;28;20050;-86
2022/03/13 07:17:13;;;;;;;48.60;21.10;;;;;;;-5.33;57.11;95942.31;4991515;28;20065;-85
2022/03/13 07:19:40;;;;;;;56.17;22.10;;;;;;;-3.54;56.17;96195.44;4991183;28;20026;-86
2022/03/13 07:22:06;;;;;;;78.32;24.08;;;;;;;-5.65;56.17;95865.50;4990648;28;20073;-86
2022/03/13 07:24:31;;;;;;;50.33;21.05;;;;;;;-4.12;56.83;96136.69;4990765;28;20077;-86
2022/03/13 07:26:57;;;;;;;46.92;20.20;;;;;;;-4.55;55.85;96109.25;5008484;28;20038;-87
2022/03/13 07:29:23;;;;;;;43.90;20.95;;;;;;;-6.34;55.64;95778.75;4990373;28;20037;-86
2022/03/13 07:31:48;;;;;;;44.58;22.55;;;;;;;-3.46;55.73;96264.63;4990977;28;20058;-86
2022/03/13 07:34:16;;;;;;;65.82;26.25;;;;;;;-3.38;56.96;96298.38;4990865;28;20575;-85
2022/03/13 07:36:41;;;;;;;59.58;24.13;;;;;;;-4.69;57.02;96064.09;4990500;28;20487;-86
2022/03/13 07:39:07;;;;;;;62.88;24.15;;;;;;;-3.73;57.08;96186.16;4952774;28;20113;-86
2022/03/13 07:41:33;;;;;;;54.88;23.92;;;;;;;-3.34;56.66;96253.78;4970247;28;20057;-86
2022/03/13 07:43:58;;;;;;;71.45;27.25;;;;;;;-4.10;57.10;96154.69;4988717;28;20037;-86
2022/03/13 07:46:24;;;;;;;59.15;27.02;;;;;;;-3.60;56.92;96212.44;4970775;28;20279;-86
2022/03/13 07:48:49;;;;;;;65.28;27.55;;;;;;;-3.71;56.99;96193.78;4992750;28;20326;-87
2022/03/13 07:51:17;;;;;;;65.43;28.77;;;;;;;-4.42;57.60;96042.28;4990137;28;20760;-86
2022/03/13 07:53:43;;;;;;;63.67;26.80;;;;;;;-5.31;56.52;95902.41;4989645;28;20042;-85
2022/03/13 07:56:08;;;;;;;58.08;25.42;;;;;;;-4.95;56.21;95923.66;4990688;28;20659;-86
2022/03/13 07:58:34;;;;;;;58.08;24.75;;;;;;;-3.25;55.70;96189.75;4989970;28;20073;-84
2022/03/13 08:00:59;;;;;;;59.55;27.33;;;;;;;-2.88;55.18;96205.59;4990036;28;20466;-85
2022/03/13 08:03:34;;;;;;;61.75;23.45;;;;;;;-2.82;54.21;96223.09;4990695;28;20038;-85
2022/03/13 08:06:00;;;;;;;48.55;22.50;;;;;;;-2.63;54.82;96227.13;4990408;28;20034;-85
2022/03/13 08:08:25;;;;;;;67.40;26.92;;;;;;;-3.42;55.65;96159.59;4989946;28;20616;-85
2022/03/13 08:10:51;;;;;;;71.38;27.98;;;;;;;-4.62;54.76;95978.03;5007175;28;20526;-85
2022/03/13 08:13:16;;;;;;;66.13;26.13;;;;;;;-2.91;55.29;96223.28;5007587;28;20491;-85
2022/03/13 08:15:41;;;;;;;69.32;26.30;;;;;;;-3.96;54.75;96003.78;4990281;28;20044;-85
2022/03/13 08:18:09;;;;;;;58.90;25.17;;;;;;;-2.50;54.32;96200.63;5007561;28;20125;-85
2022/03/13 08:20:35;;;;;;;63.15;26.98;;;;;;;-3.68;54.84;96001.63;4989589;28;20373;-85
2022/03/13 08:23:01;;;;;;;65.13;26.73;;;;;;;-2.40;54.82;96196.06;4989829;28;20030;-85
2022/03/13 08:25:26;;;;;;;53.42;23.77;;;;;;;-3.94;54.66;95918.91;4989540;28;20042;-85
2022/03/13 08:27:52;;;;;;;63.72;25.55;;;;;;;-3.59;54.72;95978.13;4989710;28;20500;-84
2022/03/13 08:30:17;;;;;;;63.25;25.58;;;;;;;-2.30;53.29;96159.47;4989629;28;20049;-85
2022/03/13 08:32:43;;;;;;;69.63;27.20;;;;;;;-2.68;53.51;96076.22;4989627;28;20042;-85
2022/03/13 08:35:09;;;;;;;51.83;25.63;;;;;;;-3.76;53.38;95877.25;4989451;28;20206;-85
2022/03/13 08:37:36;;;;;;;60.08;25.65;;;;;;;-1.78;54.45;96193.47;4989102;28;20519;-85
2022/03/13 08:40:04;;;;;;;64.45;27.33;;;;;;;-6.25;53.94;95530.81;4989853;28;20045;-85
2022/03/13 08:42:31;;;;;;;57.05;26.13;;;;;;;-1.63;54.01;96194.34;4990374;28;20045;-85
2022/03/13 08:44:57;;;;;;;56.70;26.60;;;;;;;-1.88;53.28;96144.28;4992226;28;20139;-85
2022/03/13 08:47:23;;;;;;;59.28;27.63;;;;;;;-1.41;52.57;96196.13;5011066;28;20574;-85
2022/03/13 08:49:50;;;;;;;58.88;27.58;;;;;;;-1.68;52.80;96140.22;4993206;28;20034;-85
2022/03/13 08:52:16;;;;;;;72.78;28.48;;;;;;;-1.24;52.43;96176.00;4993467;28;20115;-85
2022/03/13 08:54:41;;;;;;;74.60;28.17;;;;;;;-3.98;52.12;95736.28;4993237;28;20037;-85
2022/03/13 08:57:07;;;;;;;71.97;28.05;;;;;;;-1.10;52.32;96183.03;4993203;28;20026;-84
2022/03/13 08:59:37;;;;;;;65.07;28.23;;;;;;;-1.12;53.10;96158.97;4992763;28;20124;-84
2022/03/13 09:02:03;;;;;;;69.05;30.35;;;;;;;-1.12;52.16;96137.31;4993168;28;20037;-85
2022/03/13 09:04:29;;;;;;;64.78;28.25;;;;;;;-1.11;51.24;96129.34;4993105;28;20042;-85
2022/03/13 09:06:55;;;;;;;61.05;26.80;;;;;;;-0.60;51.23;96176.34;5010915;28;20037;-85
2022/03/13 09:09:22;;;;;;;66.82;28.13;;;;;;;-1.23;51.30;96053.50;4993187;28;20371;-84
2022/03/13 09:11:49;;;;;;;62.03;26.30;;;;;;;-1.12;49.17;96137.31;4992694;28;20038;-85
2022/03/13 09:14:15;;;;;;;63.40;28.15;;;;;;;-3.44;49.59;95750.03;5010797;28;20041;-85
2022/03/13 09:16:42;;;;;;;61.78;26.30;;;;;;;-2.02;48.22;95942.28;4993023;28;20507;-84
2022/03/13 09:19:08;;;;;;;65.80;26.33;;;;;;;-0.51;48.34;96137.00;4993142;28;20030;-85
2022/03/13 09:21:34;;;;;;;66.10;27.98;;;;;;;-0.94;48.55;96057.09;4993148;28;20072;-85
2022/03/13 09:24:02;;;;;;;63.28;28.35;;;;;;;-0.23;48.42;96139.72;5010823;28;20057;-85
2022/03/13 09:26:28;;;;;;;55.65;25.73;;;;;;;-0.72;47.00;96016.28;4992694;28;20034;-85
2022/03/13 09:28:54;;;;;;;57.45;24.02;;;;;;;-0.72;47.28;96081.41;4992504;28;20546;-84
2022/03/13 09:31:19;;;;;;;64.53;24.88;;;;;;;-0.19;47.18;96156.63;5010640;28;20053;-85
2022/03/13 09:33:45;;;;;;;54.13;24.33;;;;;;;-0.81;46.85;96076.28;4992659;28;20120;-84
2022/03/13 09:36:11;;;;;;;51.28;23.15;;;;;;;-1.06;47.05;95975.19;5011426;28;20496;-85
2022/03/13 09:38:36;;;;;;;47.60;20.58;;;;;;;0.10;47.22;96118.44;4992360;28;20405;-85
2022/03/13 09:41:02;;;;;;;46.25;19.35;;;;;;;0.31;45.29;96155.75;4992353;28;20042;-85
2022/03/13 09:43:28;;;;;;;60.72;22.35;;;;;;;-1.94;45.19;95783.63;5010032;28;20315;-85
2022/03/13 09:45:53;;;;;;;53.65;21.15;;;;;;;-0.03;46.52;96093.84;4992876;28;20040;-84
2022/03/13 09:48:21;;;;;;;60.92;23.73;;;;;;;-0.03;45.26;96065.16;4992878;28;20026;-84
2022/03/13 09:50:47;;;;;;;53.25;21.85;;;;;;;-1.19;44.94;95841.31;4993073;28;20117;-85
2022/03/13 09:53:14;;;;;;;53.97;22.00;;;;;;;0.02;45.71;96028.06;4991820;28;20484;-84
2022/03/13 09:55:39;;;;;;;62.35;22.90;;;;;;;0.29;45.07;96095.16;4992317;28;20195;-84
2022/03/13 09:58:08;;;;;;;57.80;23.00;;;;;;;0.20;45.13;96061.56;4992612;28;20132;-84
2022/03/13 10:00:35;;;;;;;50.80;22.50;;;;;;;1.08;44.14;96145.38;5010335;28;20168;-84
2022/03/13 10:03:00;;;;;;;55.35;23.92;;;;;;;1.28;44.97;96121.19;5009910;28;20042;-85
2022/03/13 10:05:27;;;;;;;53.17;22.50;;;;;;;1.09;44.49;96052.94;4992944;28;20045;-85
2022/03/13 10:08:01;;;;;;;60.72;22.40;;;;;;;1.24;44.04;96038.94;4992864;28;20049;-85
2022/03/13 10:10:39;;;;;;;50.85;23.17;;;;;;;1.29;42.92;96000.78;4992544;28;20600;-85
2022/03/13 10:13:05;;;;;;;47.70;22.30;;;;;;;1.82;42.75;96101.13;5009108;28;20045;-84
2022/03/13 10:15:50;;;;;;;54.00;21.85;;;;;;;1.94;42.17;96098.75;5009212;28;20037;-85
2022/03/13 10:18:23;;;;;;;46.75;21.65;;;;;;;0.13;40.98;95878.91;4991068;28;20120;-85
2022/03/13 10:20:49;;;;;;;42.97;20.90;;;;;;;0.76;41.63;95979.63;4991607;28;20040;-84
2022/03/13 10:23:16;;;;;;;47.45;20.98;;;;;;;0.94;42.01;95997.41;4991972;28;20038;-85
2022/03/13 10:25:49;;;;;;;60.85;22.45;;;;;;;1.58;41.45;96101.63;4993578;28;20045;-85
2022/03/13 10:28:22;;;;;;;52.35;21.05;;;;;;;1.80;41.58;96103.13;4992732;28;20041;-84
2022/03/13 10:31:05;;;;;;;50.65;21.85;;;;;;;2.14;41.60;96081.25;4988213;28;20157;-85
2022/03/13 10:33:43;;;;;;;49.78;20.02;;;;;;;2.39;41.53;96089.34;4988041;28;20129;-85
2022/03/13 10:36:16;;;;;;;48.50;20.55;;;;;;;2.75;41.34;96096.03;4990443;28;20108;-85
2022/03/13 10:38:43;;;;;;;45.60;20.42;;;;;;;2.70;39.42;96015.44;5004639;28;20438;-85
2022/03/13 10:41:09;;;;;;;46.92;21.63;;;;;;;3.34;39.24;96096.75;4989000;28;20037;-85
2022/03/13 10:43:49;;;;;;;46.35;21.00;;;;;;;2.46;39.80;95971.53;4987763;28;20042;-85
2022/03/13 10:46:30;;;;;;;56.03;19.42;;;;;;;3.52;38.77;96096.06;4987690;28;20428;-85
2022/03/13 10:48:57;;;;;;;47.55;21.25;;;;;;;3.20;38.35;96029.66;4987935;28;20519;-85
2022/03/13 10:51:45;;;;;;;46.58;19.88;;;;;;;3.77;37.14;96078.63;4989181;28;20069;-85
2022/03/13 10:54:28;;;;;;;41.25;19.35;;;;;;;3.19;38.59;95961.69;4964812;28;20154;-85
2022/03/13 10:57:05;;;;;;;43.58;18.65;;;;;;;3.64;36.85;96014.94;4954002;28;20036;-85
2022/03/13 10:59:30;;;;;;;40.15;17.52;;;;;;;3.86;36.36;96024.09;4967247;28;20039;-85
2022/03/13 11:02:21;;;;;;;39.72;15.35;;;;;;;4.19;34.87;96071.97;4960165;28;20603;-85
2022/03/13 11:04:55;;;;;;;38.03;14.43;;;;;;;3.95;33.86;96054.34;4973246;28;20031;-85
2022/03/13 11:07:22;;;;;;;45.28;15.95;;;;;;;3.47;34.26;96004.13;4967551;28;20038;-84
2022/03/13 11:09:48;;;;;;;28.98;11.45;;;;;;;3.75;32.13;96056.25;4968537;28;20034;-84
2022/03/13 11:12:20;;;;;;;33.25;11.30;;;;;;;3.58;32.16;96053.31;4968764;28;20432;-85
2022/03/13 11:14:50;;;;;;;31.45;12.57;;;;;;;3.30;33.33;96035.25;4968415;28;20038;-85
2022/03/13 11:17:21;;;;;;;30.02;11.98;;;;;;;2.22;33.74;95905.72;4968212;28;20105;-85